createdAt,value
2024-05-09T00:00:29.608Z,71.45
2024-05-09T00:03:11.355Z,73.42
2024-05-09T00:05:52.585Z,72.44
2024-05-09T00:08:26.246Z,73.49
2024-05-09T00:11:06.195Z,74.02
2024-05-09T00:14:06.022Z,75.38
2024-05-09T00:16:39.435Z,76.00
2024-05-09T00:19:19.101Z,77.29
2024-05-09T00:21:46.756Z,78.96
2024-05-09T00:24:25.328Z,80.34
2024-05-09T00:26:52.228Z,79.99
2024-05-09T00:29:29.745Z,82.00
2024-05-09T00:31:58.848Z,83.96
2024-05-09T00:34:42.028Z,86.25
2024-05-09T00:37:17.526Z,89.68
2024-05-09T00:39:54.996Z,91.65
2024-05-09T00:42:27.909Z,94.76
2024-05-09T00:44:58.393Z,98.95
2024-05-09T00:47:34.923Z,100.00
2024-05-09T00:50:03.241Z,100.00
2024-05-09T00:52:34.007Z,100.00
2024-05-09T00:55:05.780Z,100.00
2024-05-09T00:57:37.751Z,100.00
2024-05-09T01:00:26.611Z,100.00
2024-05-09T01:03:04.049Z,100.00
2024-05-09T01:05:36.114Z,100.00
2024-05-09T01:08:05.281Z,100.00
2024-05-09T01:10:37.892Z,100.00
2024-05-09T01:13:11.209Z,100.00
2024-05-09T01:15:45.922Z,100.00
2024-05-09T01:18:21.945Z,100.00
2024-05-09T01:20:50.943Z,100.00
2024-05-09T01:23:27.270Z,100.00
2024-05-09T01:26:01.218Z,100.00
2024-05-09T01:28:30.600Z,100.00
2024-05-09T01:31:05.031Z,100.00
2024-05-09T01:33:36.322Z,100.00
2024-05-09T01:36:10.062Z,100.00
2024-05-09T01:38:50.065Z,100.00
2024-05-09T01:41:20.074Z,100.00
2024-05-09T01:43:56.342Z,100.00
2024-05-09T01:49:07.699Z,100.00
2024-05-09T01:51:36.950Z,100.00
2024-05-09T01:54:09.648Z,100.00
2024-05-09T01:56:51.122Z,100.00
2024-05-09T01:59:21.589Z,100.00
2024-05-09T02:01:56.724Z,100.00
2024-05-09T02:04:32.424Z,100.00
2024-05-09T02:07:11.841Z,100.00
2024-05-09T02:09:46.340Z,100.00
2024-05-09T02:12:24.869Z,100.00
2024-05-09T02:15:05.930Z,100.00
2024-05-09T02:17:38.555Z,100.00
2024-05-09T02:20:18.982Z,100.00
2024-05-09T02:23:23.586Z,100.00
2024-05-09T02:26:10.140Z,100.00
2024-05-09T02:28:47.748Z,100.00
2024-05-09T02:31:21.623Z,100.00
2024-05-09T02:34:01.110Z,100.00
2024-05-09T02:36:54.567Z,100.00
2024-05-09T02:42:20.516Z,100.00
2024-05-09T02:45:02.030Z,100.00
2024-05-09T02:47:32.602Z,100.00
2024-05-09T02:50:07.764Z,100.00
2024-05-09T02:52:40.858Z,100.00
2024-05-09T02:55:16.695Z,100.00
2024-05-09T02:57:53.562Z,100.00
2024-05-09T03:00:34.648Z,100.00
2024-05-09T03:03:17.035Z,100.00
2024-05-09T03:06:17.383Z,100.00
2024-05-09T03:08:56.600Z,100.00
2024-05-09T03:11:28.092Z,100.00
2024-05-09T03:14:08.058Z,100.00
2024-05-09T03:16:52.517Z,97.00
2024-05-09T03:19:50.266Z,93.70
2024-05-09T03:22:20.429Z,93.54
2024-05-09T03:24:56.029Z,95.98
2024-05-09T03:30:30.194Z,93.71
2024-05-09T03:33:29.046Z,88.01
2024-05-09T03:38:54.029Z,81.44
2024-05-09T03:41:26.793Z,85.01
2024-05-09T03:43:57.135Z,90.67
2024-05-09T03:46:29.196Z,93.80
2024-05-09T03:48:59.791Z,91.30
2024-05-09T03:51:36.659Z,92.16
2024-05-09T03:54:10.773Z,87.83
2024-05-09T03:56:52.796Z,79.38
2024-05-09T03:59:27.772Z,81.12
2024-05-09T04:01:59.517Z,83.49
2024-05-09T04:04:31.272Z,81.18
2024-05-09T04:07:08.571Z,83.73
2024-05-09T04:09:37.472Z,84.04
2024-05-09T04:12:18.438Z,82.13
2024-05-09T04:14:46.230Z,78.35
2024-05-09T04:17:20.745Z,75.08
2024-05-09T04:20:00.309Z,71.82
2024-05-09T04:22:30.701Z,67.05
2024-05-09T04:25:06.748Z,68.04
2024-05-09T04:27:37.273Z,63.96
2024-05-09T04:30:09.931Z,61.99
2024-05-09T04:32:45.857Z,61.92
2024-05-09T04:35:22.541Z,62.47
2024-05-09T04:40:36.262Z,59.78
2024-05-09T04:43:07.118Z,61.03
2024-05-09T04:45:43.698Z,60.73
2024-05-09T04:51:12.928Z,61.50
2024-05-09T04:53:45.121Z,58.44
2024-05-09T04:56:20.033Z,58.11
2024-05-09T04:58:55.598Z,59.35
2024-05-09T05:01:29.349Z,59.83
2024-05-09T05:04:08.811Z,60.60
2024-05-09T05:06:42.083Z,60.64
2024-05-09T05:09:17.984Z,58.30
2024-05-09T05:11:48.200Z,60.50
2024-05-09T05:14:26.578Z,60.26
2024-05-09T05:16:57.291Z,59.82
2024-05-09T05:19:29.471Z,62.30
2024-05-09T05:21:58.377Z,60.64
2024-05-09T05:24:31.859Z,60.64
2024-05-09T05:27:01.770Z,58.66
2024-05-09T05:29:41.706Z,57.52
2024-05-09T05:32:18.685Z,59.83
2024-05-09T05:35:00.224Z,61.49
2024-05-09T05:37:47.861Z,64.77
2024-05-09T05:40:27.595Z,64.71
2024-05-09T05:43:13.025Z,69.29
2024-05-09T05:45:45.333Z,67.17
2024-05-09T05:48:23.187Z,64.58
2024-05-09T05:56:29.348Z,66.42
2024-05-09T05:59:15.911Z,64.92
2024-05-09T06:01:49.206Z,64.40
2024-05-09T06:04:21.592Z,63.28
2024-05-09T06:06:52.780Z,60.13
2024-05-09T06:09:23.234Z,59.50
2024-05-09T06:11:56.446Z,59.72
2024-05-09T06:14:29.537Z,61.30
2024-05-09T06:20:07.403Z,59.70
2024-05-09T06:22:46.223Z,60.64
2024-05-09T06:25:14.517Z,58.14
2024-05-09T06:27:47.512Z,57.22
2024-05-09T06:30:52.483Z,58.23
2024-05-09T06:33:23.964Z,58.79
2024-05-09T06:35:59.757Z,57.10
2024-05-09T06:38:38.442Z,56.26
2024-05-09T06:41:19.709Z,56.13
2024-05-09T06:43:48.417Z,55.41
2024-05-09T06:46:16.857Z,55.25
2024-05-09T06:48:50.907Z,55.11
2024-05-09T06:51:32.822Z,54.27
2024-05-09T06:54:05.586Z,56.12
2024-05-09T06:56:40.127Z,54.93
2024-05-09T06:59:21.014Z,55.47
2024-05-09T07:01:55.442Z,54.82
2024-05-09T07:07:09.717Z,54.17
2024-05-09T07:09:44.527Z,54.38
2024-05-09T07:12:11.797Z,54.41
2024-05-09T07:14:49.913Z,55.10
2024-05-09T07:17:20.691Z,53.40
2024-05-09T07:20:27.601Z,54.42
2024-05-09T07:26:04.695Z,54.31
2024-05-09T07:28:40.765Z,51.39
2024-05-09T07:31:13.485Z,51.22
2024-05-09T07:33:47.026Z,49.00
2024-05-09T07:36:16.902Z,48.60
2024-05-09T07:38:47.447Z,49.60
2024-05-09T07:44:02.803Z,50.09
2024-05-09T07:53:29.968Z,50.14
2024-05-09T07:55:05.121Z,49.52
2024-05-09T07:57:44.893Z,48.67
2024-05-09T08:00:17.354Z,49.09
2024-05-09T08:02:57.377Z,47.49
2024-05-09T08:08:36.041Z,49.15
2024-05-09T08:11:11.274Z,49.10
2024-05-09T08:13:46.079Z,49.31
2024-05-09T08:22:19.905Z,49.18
2024-05-09T08:30:42.493Z,49.07
2024-05-09T08:36:04.934Z,49.22
2024-05-09T08:38:45.409Z,48.40
2024-05-09T08:44:05.308Z,48.07
2024-05-09T08:46:36.435Z,47.86
2024-05-09T08:49:05.743Z,47.06
2024-05-09T08:51:38.196Z,47.13
2024-05-09T08:54:12.749Z,47.94
2024-05-09T08:56:50.751Z,48.57
2024-05-09T08:59:48.442Z,49.67
2024-05-09T09:02:29.108Z,50.17
2024-05-09T09:05:20.909Z,49.87
2024-05-09T09:07:52.985Z,49.08
2024-05-09T09:10:31.919Z,48.52
2024-05-09T09:13:32.455Z,48.42
2024-05-09T09:21:42.269Z,48.09
2024-05-09T09:24:14.707Z,46.93
2024-05-09T09:26:45.688Z,48.96
2024-05-09T09:29:23.993Z,50.03
2024-05-09T09:35:15.175Z,48.78
2024-05-09T09:38:00.410Z,48.64
2024-05-09T09:43:41.911Z,49.09
2024-05-09T09:46:17.233Z,49.22
2024-05-09T09:48:47.133Z,49.22
2024-05-09T09:51:28.335Z,50.57
2024-05-09T09:56:49.926Z,50.19
2024-05-09T09:59:25.328Z,49.11
2024-05-09T10:02:02.837Z,50.35
2024-05-09T10:07:40.013Z,50.07
2024-05-09T10:13:21.285Z,51.61
2024-05-09T10:21:22.554Z,50.53
2024-05-09T10:26:58.963Z,52.78
2024-05-09T10:32:25.339Z,52.25
2024-05-09T10:35:18.494Z,52.19
2024-05-09T10:40:32.334Z,49.34
2024-05-09T10:43:06.971Z,48.76
2024-05-09T10:45:39.549Z,47.78
2024-05-09T10:48:13.640Z,48.44
2024-05-09T10:50:49.494Z,47.72
2024-05-09T10:53:25.860Z,46.75
2024-05-09T10:56:08.111Z,45.28
2024-05-09T10:58:55.997Z,44.91
2024-05-09T11:04:12.339Z,44.50
2024-05-09T11:07:05.387Z,44.94
2024-05-09T11:09:38.327Z,44.55
2024-05-09T11:12:30.430Z,44.01
2024-05-09T11:18:09.141Z,45.39
2024-05-09T11:20:43.602Z,44.61
2024-05-09T11:23:19.189Z,45.45
2024-05-09T11:25:59.744Z,45.46
2024-05-09T11:28:35.361Z,46.16
2024-05-09T11:31:16.458Z,45.37
2024-05-09T11:33:47.764Z,45.39
2024-05-09T11:36:15.513Z,46.22
2024-05-09T11:38:44.608Z,45.88
2024-05-09T11:41:20.492Z,45.48
2024-05-09T11:43:47.781Z,45.32
2024-05-09T11:55:04.474Z,45.43
2024-05-09T11:57:36.141Z,46.51
2024-05-09T12:00:07.344Z,45.42
2024-05-09T12:02:43.177Z,46.04
2024-05-09T12:05:12.659Z,45.75
2024-05-09T12:08:08.450Z,45.66
2024-05-09T12:10:45.928Z,45.97
2024-05-09T12:13:20.097Z,45.88
2024-05-09T12:15:54.050Z,45.82
2024-05-09T12:18:25.366Z,45.12
2024-05-09T12:20:56.296Z,45.22
2024-05-09T12:23:25.321Z,44.21
2024-05-09T12:25:58.086Z,44.47
2024-05-09T12:31:20.816Z,45.04
2024-05-09T12:33:50.448Z,45.20
2024-05-09T12:36:36.718Z,45.77
2024-05-09T12:48:23.421Z,45.95
2024-05-09T12:56:39.970Z,45.31
2024-05-09T12:59:11.392Z,43.61
2024-05-09T13:01:41.805Z,43.44
2024-05-09T13:07:00.247Z,43.01
2024-05-09T13:10:04.459Z,42.53
2024-05-09T13:15:29.616Z,42.30
2024-05-09T13:18:07.931Z,42.21
2024-05-09T13:23:27.971Z,42.04
2024-05-09T13:26:00.169Z,41.26
2024-05-09T13:28:33.227Z,41.17
2024-05-09T13:34:00.961Z,41.97
2024-05-09T13:42:28.662Z,41.00
2024-05-09T13:45:03.297Z,41.31
2024-05-09T13:50:27.565Z,41.14
2024-05-09T13:53:07.238Z,40.92
2024-05-09T13:55:45.198Z,40.70
2024-05-09T13:58:15.333Z,40.13
2024-05-09T14:00:53.203Z,39.24
2024-05-09T14:03:31.343Z,39.91
2024-05-09T14:06:13.113Z,39.43
2024-05-09T14:08:52.403Z,38.43
2024-05-09T14:11:22.604Z,39.55
2024-05-09T14:13:52.084Z,39.13
2024-05-09T14:16:26.871Z,38.88
2024-05-09T14:18:58.946Z,40.03
2024-05-09T14:21:39.976Z,38.64
2024-05-09T14:24:12.510Z,38.72
2024-05-09T14:26:48.124Z,38.53
2024-05-09T14:29:22.731Z,38.62
2024-05-09T14:31:51.282Z,38.44
2024-05-09T14:34:18.926Z,38.52
2024-05-09T14:36:55.194Z,38.21
2024-05-09T14:39:24.222Z,38.62
2024-05-09T14:44:51.358Z,38.69
2024-05-09T14:56:52.902Z,37.83
2024-05-09T14:59:21.658Z,37.86
2024-05-09T15:02:09.996Z,37.77
2024-05-09T15:04:37.186Z,36.96
2024-05-09T15:07:04.642Z,36.45
2024-05-09T15:09:41.943Z,35.23
2024-05-09T15:12:09.907Z,33.65
2024-05-09T15:14:37.329Z,33.34
2024-05-09T15:17:09.741Z,32.76
2024-05-09T15:19:38.484Z,32.56
2024-05-09T15:22:06.306Z,32.63
2024-05-09T15:24:34.327Z,32.87
2024-05-09T15:27:01.343Z,33.39
2024-05-09T15:29:29.791Z,33.20
2024-05-09T15:31:56.968Z,32.35
2024-05-09T15:34:23.991Z,32.26
2024-05-09T15:36:54.060Z,32.96
2024-05-09T15:39:21.104Z,32.66
2024-05-09T15:41:48.362Z,33.20
2024-05-09T15:44:15.593Z,32.85
2024-05-09T15:46:42.727Z,33.47
2024-05-09T15:49:10.130Z,33.24
2024-05-09T15:51:37.210Z,32.02
2024-05-09T15:54:04.502Z,31.55
2024-05-09T15:56:31.558Z,31.05
2024-05-09T15:59:00.120Z,31.42
2024-05-09T16:01:27.013Z,32.44
2024-05-09T16:06:37.132Z,32.82
2024-05-09T16:22:53.536Z,31.41
2024-05-09T16:34:41.223Z,31.71
2024-05-09T16:37:10.621Z,31.80
2024-05-09T16:39:38.135Z,31.18
2024-05-09T16:42:05.577Z,31.27
2024-05-09T16:44:35.594Z,31.33
2024-05-09T16:47:02.783Z,32.02
2024-05-09T16:49:30.133Z,32.13
2024-05-09T16:51:57.164Z,32.65
2024-05-09T16:54:27.273Z,32.25
2024-05-09T16:56:54.249Z,32.85
2024-05-09T16:59:22.688Z,32.10
2024-05-09T17:01:52.018Z,31.83
2024-05-09T17:04:19.429Z,31.61
2024-05-09T17:06:46.404Z,32.30
2024-05-09T17:09:15.665Z,33.35
2024-05-09T17:11:47.433Z,33.39
2024-05-09T17:14:14.730Z,32.87
2024-05-09T17:16:41.645Z,33.81
2024-05-09T17:19:09.485Z,34.55
2024-05-09T17:21:38.648Z,35.77
2024-05-09T17:24:05.914Z,35.70
2024-05-09T17:26:33.460Z,35.72
2024-05-09T17:29:00.619Z,35.67
2024-05-09T17:31:27.726Z,36.39
2024-05-09T17:33:54.999Z,36.51
2024-05-09T17:36:22.357Z,36.33
2024-05-09T17:38:49.330Z,36.66
2024-05-09T17:41:16.230Z,36.40
2024-05-09T17:43:43.153Z,37.55
2024-05-09T17:46:10.300Z,37.37
2024-05-09T17:48:37.329Z,37.68
2024-05-09T17:51:04.823Z,37.83
2024-05-09T17:53:31.678Z,37.55
2024-05-09T17:56:00.517Z,36.64
2024-05-09T17:58:27.650Z,37.04
2024-05-09T18:00:54.889Z,37.15
2024-05-09T18:03:23.489Z,37.12
2024-05-09T18:05:50.872Z,37.71
2024-05-09T18:08:17.836Z,36.52
2024-05-09T18:10:44.975Z,35.93
2024-05-09T18:13:13.231Z,35.64
2024-05-09T18:15:40.900Z,35.52
2024-05-09T18:18:09.176Z,35.57
2024-05-09T18:20:42.668Z,35.33
2024-05-09T18:23:14.629Z,35.14
2024-05-09T18:25:43.030Z,35.34
2024-05-09T18:28:10.256Z,35.03
2024-05-09T18:30:37.826Z,35.01
2024-05-09T18:33:07.188Z,35.21
2024-05-09T18:35:35.624Z,35.70
2024-05-09T18:38:03.216Z,35.21
2024-05-09T18:40:34.607Z,35.82
2024-05-09T18:43:05.665Z,35.51
2024-05-09T18:45:34.133Z,35.52
2024-05-09T18:48:01.452Z,36.26
2024-05-09T18:50:34.943Z,35.88
2024-05-09T18:53:08.987Z,35.98
2024-05-09T18:55:36.328Z,36.46
2024-05-09T18:58:04.616Z,37.13
2024-05-09T19:00:36.097Z,37.37
2024-05-09T19:03:11.749Z,38.00
2024-05-09T19:05:41.797Z,38.61
2024-05-09T19:08:09.822Z,38.17
2024-05-09T19:10:37.519Z,38.39
2024-05-09T19:13:09.073Z,39.74
2024-05-09T19:15:39.910Z,38.34
2024-05-09T19:18:07.713Z,38.10
2024-05-09T19:20:36.383Z,37.64
2024-05-09T19:23:05.996Z,37.31
2024-05-09T19:25:33.827Z,37.28
2024-05-09T19:28:01.337Z,36.82
2024-05-09T19:30:37.582Z,37.16
2024-05-09T19:33:08.936Z,37.32
2024-05-09T19:35:36.237Z,37.58
2024-05-09T19:38:03.394Z,38.08
2024-05-09T19:40:32.932Z,38.27
2024-05-09T19:43:02.855Z,37.40
2024-05-09T19:45:30.714Z,37.07
2024-05-09T19:47:57.865Z,36.43
2024-05-09T19:50:36.869Z,37.63
2024-05-09T19:53:10.092Z,37.54
2024-05-09T19:55:37.457Z,37.91
2024-05-09T19:58:07.253Z,36.87
2024-05-09T20:00:37.426Z,36.01
2024-05-09T20:03:07.027Z,35.94
2024-05-09T20:05:34.485Z,35.94
2024-05-09T20:08:01.583Z,35.83
2024-05-09T20:10:32.595Z,36.20
2024-05-09T20:13:02.467Z,36.36
2024-05-09T20:15:29.637Z,35.92
2024-05-09T20:17:57.182Z,36.19
2024-05-09T20:20:33.301Z,39.60
2024-05-09T20:23:06.353Z,37.25
2024-05-09T20:25:33.461Z,38.75
2024-05-09T20:28:00.594Z,42.10
2024-05-09T20:30:32.207Z,40.67
2024-05-09T20:33:02.821Z,42.75
2024-05-09T20:35:32.444Z,43.19
2024-05-09T20:37:59.803Z,41.31
2024-05-09T20:40:32.668Z,41.28
2024-05-09T20:43:03.468Z,41.39
2024-05-09T20:45:30.623Z,42.20
2024-05-09T20:47:58.247Z,40.86
2024-05-09T20:50:35.726Z,40.54
2024-05-09T20:53:08.903Z,40.16
2024-05-09T20:55:36.210Z,40.79
2024-05-09T20:58:03.226Z,40.90
2024-05-09T21:00:38.774Z,40.67
2024-05-09T21:03:09.475Z,40.49
2024-05-09T21:05:36.705Z,40.77
2024-05-09T21:08:04.076Z,40.56
2024-05-09T21:10:33.367Z,41.21
2024-05-09T21:13:03.008Z,42.65
2024-05-09T21:15:31.087Z,43.13
2024-05-09T21:17:58.298Z,43.19
2024-05-09T21:20:31.398Z,43.19
2024-05-09T21:22:59.807Z,43.83
2024-05-09T21:25:27.129Z,44.88
2024-05-09T21:27:54.197Z,45.38
2024-05-09T21:30:31.715Z,45.72
2024-05-09T21:33:12.694Z,46.14
2024-05-09T21:35:41.776Z,46.51
2024-05-09T21:38:08.895Z,46.59
2024-05-09T21:40:37.369Z,46.95
2024-05-09T21:43:06.595Z,47.34
2024-05-09T21:45:34.381Z,47.99
2024-05-09T21:48:03.910Z,48.32
2024-05-09T21:50:37.136Z,48.89
2024-05-09T21:53:08.020Z,49.13
2024-05-09T21:55:35.070Z,49.65
2024-05-09T21:58:02.485Z,49.57
2024-05-09T22:00:35.855Z,49.40
2024-05-09T22:03:05.534Z,50.37
2024-05-09T22:05:32.852Z,51.86
2024-05-09T22:08:00.041Z,53.23
2024-05-09T22:10:33.252Z,57.87
2024-05-09T22:13:02.635Z,57.75
2024-05-09T22:15:29.550Z,58.32
2024-05-09T22:17:57.549Z,58.39
2024-05-09T22:20:34.067Z,57.54
2024-05-09T22:23:04.904Z,57.68
2024-05-09T22:25:32.969Z,58.27
2024-05-09T22:28:01.716Z,58.01
2024-05-09T22:30:35.796Z,59.80
2024-05-09T22:33:10.962Z,60.35
2024-05-09T22:35:39.556Z,60.07
2024-05-09T22:38:06.581Z,60.21
2024-05-09T22:40:43.225Z,60.02
2024-05-09T22:43:23.877Z,61.18
2024-05-09T22:45:55.146Z,63.58
2024-05-09T22:48:23.804Z,65.10
2024-05-09T22:50:51.479Z,65.77
2024-05-09T22:53:18.502Z,65.15
2024-05-09T22:55:46.632Z,64.75
2024-05-09T23:01:02.588Z,66.67
2024-05-09T23:08:58.262Z,73.92
2024-05-09T23:11:30.823Z,74.93
2024-05-09T23:14:07.690Z,77.46
2024-05-09T23:16:54.421Z,77.07
2024-05-09T23:19:26.468Z,77.58
2024-05-09T23:22:24.405Z,79.92
2024-05-09T23:24:58.930Z,82.05
2024-05-09T23:27:32.573Z,82.27
2024-05-09T23:30:12.072Z,81.36
2024-05-09T23:35:31.079Z,84.60
2024-05-09T23:38:02.333Z,83.91
2024-05-09T23:40:48.908Z,81.04
2024-05-09T23:43:19.896Z,84.40
2024-05-09T23:45:52.238Z,83.03
2024-05-09T23:48:34.978Z,83.95
2024-05-09T23:51:23.589Z,84.05
2024-05-09T23:53:53.086Z,86.14
2024-05-09T23:56:29.443Z,85.54
2024-05-09T23:59:06.696Z,90.54
